createdAt,value
2018-06-21T00:01:28.823Z,20.60
2018-06-21T00:03:56.036Z,20.60
2018-06-21T00:06:23.261Z,20.50
2018-06-21T00:08:50.513Z,20.50
2018-06-21T00:11:17.741Z,20.40
2018-06-21T00:13:44.954Z,20.40
2018-06-21T00:16:12.183Z,20.30
2018-06-21T00:18:39.420Z,20.20
2018-06-21T00:21:06.653Z,20.10
2018-06-21T00:23:33.885Z,20.20
2018-06-21T00:26:01.120Z,20.20
2018-06-21T00:28:28.360Z,20.20
2018-06-21T00:30:55.590Z,20.20
2018-06-21T00:35:50.028Z,20.20
2018-06-21T00:38:17.242Z,20.10
2018-06-21T00:40:44.453Z,20.10
2018-06-21T00:43:11.689Z,20.00
2018-06-21T00:45:38.908Z,20.10
2018-06-21T00:48:06.128Z,20.10
2018-06-21T00:50:33.355Z,20.10
2018-06-21T00:53:00.596Z,20.10
2018-06-21T00:55:39.292Z,20.20
2018-06-21T00:58:06.577Z,20.20
2018-06-21T01:00:33.794Z,20.10
2018-06-21T01:03:01.025Z,20.00
2018-06-21T01:05:28.253Z,20.00
2018-06-21T01:07:55.483Z,20.00
2018-06-21T01:10:22.705Z,19.90
2018-06-21T01:12:49.929Z,19.90
2018-06-21T01:15:17.161Z,19.80
2018-06-21T01:17:44.390Z,19.80
2018-06-21T01:20:11.626Z,19.80
2018-06-21T01:22:38.882Z,19.80
2018-06-21T01:25:06.118Z,19.80
2018-06-21T01:27:33.340Z,19.80
2018-06-21T01:30:00.561Z,19.70
2018-06-21T01:32:27.799Z,19.70
2018-06-21T01:34:55.028Z,19.80
2018-06-21T01:37:22.244Z,19.70
2018-06-21T01:39:49.465Z,19.70
2018-06-21T01:42:16.714Z,19.80
2018-06-21T01:44:43.928Z,19.80
2018-06-21T01:47:11.156Z,19.80
2018-06-21T01:49:38.386Z,19.80
2018-06-21T01:52:05.655Z,19.70
2018-06-21T01:54:32.889Z,19.70
2018-06-21T01:57:00.101Z,19.70
2018-06-21T01:59:27.317Z,19.80
2018-06-21T02:01:54.505Z,19.80
2018-06-21T02:06:48.946Z,19.70
2018-06-21T02:11:43.373Z,19.50
2018-06-21T02:14:10.570Z,19.50
2018-06-21T02:16:37.776Z,19.40
2018-06-21T02:19:04.986Z,19.30
2018-06-21T02:21:32.190Z,19.30
2018-06-21T02:23:59.403Z,19.20
2018-06-21T02:26:26.645Z,19.00
2018-06-21T02:28:53.868Z,19.00
2018-06-21T02:31:21.055Z,18.90
2018-06-21T02:33:48.269Z,18.90
2018-06-21T02:36:15.471Z,18.90
2018-06-21T02:38:42.686Z,18.90
2018-06-21T02:41:09.889Z,18.90
2018-06-21T02:43:37.108Z,18.90
2018-06-21T02:46:04.541Z,19.00
2018-06-21T02:48:31.734Z,19.10
2018-06-21T02:50:58.950Z,19.10
2018-06-21T02:53:26.165Z,19.10
2018-06-21T02:55:53.378Z,19.00
2018-06-21T02:58:20.581Z,18.90
2018-06-21T03:00:47.827Z,18.90
2018-06-21T03:03:15.017Z,18.90
2018-06-21T03:05:42.259Z,18.80
2018-06-21T03:08:09.445Z,18.70
2018-06-21T03:10:36.657Z,18.70
2018-06-21T03:13:05.219Z,18.80
2018-06-21T03:15:32.426Z,18.70
2018-06-21T03:17:59.633Z,18.70
2018-06-21T03:20:26.877Z,18.60
2018-06-21T03:22:54.111Z,18.60
2018-06-21T03:25:21.368Z,18.50
2018-06-21T03:27:48.696Z,18.50
2018-06-21T03:30:21.621Z,18.60
2018-06-21T03:32:48.994Z,18.60
2018-06-21T03:35:18.672Z,18.70
2018-06-21T03:37:45.872Z,18.70
2018-06-21T03:40:13.069Z,18.70
2018-06-21T03:42:40.329Z,18.60
2018-06-21T03:45:07.553Z,18.50
2018-06-21T03:47:34.749Z,18.40
2018-06-21T03:50:01.947Z,18.30
2018-06-21T03:52:29.231Z,18.30
2018-06-21T03:54:56.440Z,18.30
2018-06-21T03:57:23.648Z,18.30
2018-06-21T03:59:50.845Z,18.30
2018-06-21T04:02:18.073Z,18.30
2018-06-21T04:04:45.283Z,18.30
2018-06-21T04:07:12.482Z,18.40
2018-06-21T04:09:39.675Z,18.40
2018-06-21T04:12:06.877Z,18.50
2018-06-21T04:14:34.059Z,18.60
2018-06-21T04:17:01.351Z,18.60
2018-06-21T04:19:28.589Z,18.70
2018-06-21T04:21:55.792Z,18.70
2018-06-21T04:24:22.985Z,18.80
2018-06-21T04:26:50.185Z,18.80
2018-06-21T04:29:17.407Z,18.80
2018-06-21T04:31:44.615Z,18.80
2018-06-21T04:36:39.065Z,18.80
2018-06-21T04:39:06.790Z,18.90
2018-06-21T04:41:34.053Z,18.90
2018-06-21T04:44:01.259Z,19.00
2018-06-21T04:46:28.450Z,19.10
2018-06-21T04:48:55.644Z,19.10
2018-06-21T04:51:22.832Z,19.10
2018-06-21T04:53:50.026Z,19.20
2018-06-21T04:56:17.213Z,19.20
2018-06-21T04:58:44.404Z,19.20
2018-06-21T05:01:11.960Z,19.20
2018-06-21T05:03:39.154Z,19.30
2018-06-21T05:06:06.344Z,19.30
2018-06-21T05:08:33.538Z,19.40
2018-06-21T05:11:00.729Z,19.50
2018-06-21T05:13:27.944Z,19.60
2018-06-21T05:15:55.348Z,19.70
2018-06-21T05:18:22.609Z,19.80
2018-06-21T05:20:49.777Z,20.00
2018-06-21T05:23:16.997Z,20.10
2018-06-21T05:25:44.190Z,20.30
2018-06-21T05:28:11.406Z,20.40
2018-06-21T05:30:38.590Z,20.60
2018-06-21T05:33:06.072Z,20.80
2018-06-21T05:35:33.360Z,20.80
2018-06-21T05:38:00.576Z,20.90
2018-06-21T05:40:32.800Z,20.80
2018-06-21T05:43:00.892Z,20.70
2018-06-21T05:45:28.106Z,20.70
2018-06-21T05:47:55.948Z,20.70
2018-06-21T05:50:23.138Z,20.80
2018-06-21T05:52:50.462Z,21.00
2018-06-21T05:55:17.669Z,21.10
2018-06-21T05:57:44.849Z,21.20
2018-06-21T06:00:12.162Z,21.20
2018-06-21T06:02:39.720Z,21.10
2018-06-21T06:05:06.923Z,21.00
2018-06-21T06:07:34.115Z,21.00
2018-06-21T06:10:01.381Z,21.00
2018-06-21T06:14:57.931Z,21.10
2018-06-21T06:17:25.126Z,21.20
2018-06-21T06:19:52.317Z,21.10
2018-06-21T06:22:20.498Z,21.10
2018-06-21T06:24:47.694Z,21.10
2018-06-21T06:27:14.885Z,21.10
2018-06-21T06:29:42.080Z,21.20
2018-06-21T06:32:09.264Z,21.20
2018-06-21T06:34:36.477Z,21.30
2018-06-21T06:37:03.709Z,21.40
2018-06-21T06:41:58.121Z,21.60
2018-06-21T06:44:25.317Z,21.70
2018-06-21T06:46:52.509Z,21.80
2018-06-21T06:49:19.709Z,22.00
2018-06-21T06:51:46.918Z,22.20
2018-06-21T06:54:14.155Z,22.60
2018-06-21T06:56:41.357Z,23.70
2018-06-21T06:59:08.562Z,24.10
2018-06-21T07:01:35.757Z,25.10
2018-06-21T07:04:03.073Z,25.90
2018-06-21T07:06:30.269Z,27.10
2018-06-21T07:11:26.105Z,29.30
2018-06-21T07:13:53.296Z,29.60
2018-06-21T07:16:20.493Z,30.20
2018-06-21T07:18:47.697Z,30.40
2018-06-21T07:21:14.897Z,30.70
2018-06-21T07:23:42.316Z,30.50
2018-06-21T07:26:09.509Z,31.00
2018-06-21T07:31:03.912Z,31.50
2018-06-21T07:33:31.147Z,31.70
2018-06-21T07:35:58.350Z,31.80
2018-06-21T07:38:25.537Z,32.00
2018-06-21T07:40:52.726Z,31.90
2018-06-21T07:43:19.942Z,31.90
2018-06-21T07:45:47.144Z,31.70
2018-06-21T07:48:14.349Z,31.80
2018-06-21T07:50:41.548Z,31.90
2018-06-21T07:53:08.989Z,32.20
2018-06-21T07:55:36.177Z,32.10
2018-06-21T07:58:03.396Z,31.70
2018-06-21T08:00:30.589Z,31.90
2018-06-21T08:02:57.780Z,31.30
2018-06-21T08:05:25.035Z,31.70
2018-06-21T08:07:52.226Z,31.90
2018-06-21T08:10:19.420Z,32.50
2018-06-21T08:12:46.620Z,32.20
2018-06-21T08:15:13.824Z,31.90
2018-06-21T08:17:41.052Z,31.80
2018-06-21T08:20:08.305Z,32.00
2018-06-21T08:22:35.497Z,31.80
2018-06-21T08:25:02.754Z,32.20
2018-06-21T08:27:29.965Z,32.00
2018-06-21T08:29:57.166Z,32.10
2018-06-21T08:32:24.370Z,32.50
2018-06-21T08:34:51.556Z,33.00
2018-06-21T08:37:18.749Z,33.50
2018-06-21T08:39:46.444Z,33.80
2018-06-21T08:42:13.628Z,34.10
2018-06-21T08:44:40.832Z,33.80
2018-06-21T08:47:08.026Z,33.70
2018-06-21T08:49:35.252Z,33.20
2018-06-21T08:52:02.489Z,32.90
2018-06-21T08:54:29.776Z,32.60
2018-06-21T08:56:57.013Z,32.30
2018-06-21T08:59:24.222Z,32.20
2018-06-21T09:01:51.411Z,32.70
2018-06-21T09:04:18.609Z,33.30
2018-06-21T09:06:45.794Z,33.50
2018-06-21T09:09:13.008Z,32.60
2018-06-21T09:11:40.190Z,31.50
2018-06-21T09:14:07.410Z,31.40
2018-06-21T09:16:34.618Z,31.50
2018-06-21T09:19:01.814Z,31.40
2018-06-21T09:21:29.008Z,31.30
2018-06-21T09:23:56.201Z,31.40
2018-06-21T09:26:23.405Z,31.20
2018-06-21T09:28:50.601Z,31.40
2018-06-21T09:31:17.800Z,31.50
2018-06-21T09:33:44.996Z,32.00
2018-06-21T09:36:12.193Z,31.50
2018-06-21T09:38:45.145Z,30.80
2018-06-21T09:41:18.097Z,31.50
2018-06-21T09:44:03.824Z,31.80
2018-06-21T09:46:33.874Z,30.00
2018-06-21T09:48:52.050Z,29.00
2018-06-21T09:51:19.708Z,29.30
2018-06-21T09:53:46.921Z,28.30
2018-06-21T09:56:14.233Z,27.50
2018-06-21T09:58:41.421Z,27.30
2018-06-21T10:01:08.629Z,26.70
2018-06-21T10:03:35.825Z,27.00
2018-06-21T10:06:03.041Z,27.60
2018-06-21T10:08:30.233Z,28.60
2018-06-21T10:10:57.419Z,28.70
2018-06-21T10:13:24.783Z,28.90
2018-06-21T10:15:52.160Z,28.50
2018-06-21T10:18:19.389Z,28.30
2018-06-21T10:20:46.610Z,27.70
2018-06-21T10:23:13.942Z,26.80
2018-06-21T10:25:41.148Z,26.30
2018-06-21T10:28:08.334Z,26.00
2018-06-21T10:30:35.562Z,27.00
2018-06-21T10:33:02.750Z,28.00
2018-06-21T10:35:29.946Z,28.50
2018-06-21T10:37:57.137Z,29.80
2018-06-21T10:40:24.340Z,30.10
2018-06-21T10:42:51.550Z,30.20
2018-06-21T10:45:18.757Z,30.50
2018-06-21T10:47:45.971Z,30.40
2018-06-21T10:50:13.184Z,30.60
2018-06-21T10:52:40.370Z,29.50
2018-06-21T10:55:07.560Z,28.80
2018-06-21T10:57:34.771Z,28.80
2018-06-21T11:00:01.969Z,29.40
2018-06-21T11:02:29.186Z,28.70
2018-06-21T11:04:56.376Z,28.10
2018-06-21T11:07:23.570Z,27.70
2018-06-21T11:09:50.948Z,27.80
2018-06-21T11:12:18.133Z,27.90
2018-06-21T11:14:45.324Z,28.40
2018-06-21T11:17:12.534Z,28.60
2018-06-21T11:19:39.728Z,28.20
2018-06-21T11:22:06.934Z,29.00
2018-06-21T11:24:34.117Z,29.10
2018-06-21T11:27:01.301Z,29.00
2018-06-21T11:29:28.521Z,28.40
2018-06-21T11:31:55.733Z,28.20
2018-06-21T11:34:23.049Z,28.60
2018-06-21T11:36:50.234Z,28.90
2018-06-21T11:39:17.452Z,29.50
2018-06-21T11:41:44.669Z,29.90
2018-06-21T11:44:11.859Z,30.20
2018-06-21T11:46:39.125Z,30.50
2018-06-21T11:49:06.373Z,29.90
2018-06-21T11:51:33.553Z,29.70
2018-06-21T11:54:00.836Z,29.30
2018-06-21T11:56:28.022Z,29.50
2018-06-21T11:58:55.229Z,29.70
2018-06-21T12:01:22.449Z,29.70
2018-06-21T12:03:49.657Z,29.90
2018-06-21T12:06:16.852Z,29.00
2018-06-21T12:08:44.061Z,28.20
2018-06-21T12:11:11.261Z,28.20
2018-06-21T12:13:38.556Z,28.90
2018-06-21T12:16:05.759Z,29.50
2018-06-21T12:18:32.957Z,28.50
2018-06-21T12:21:00.152Z,27.00
2018-06-21T12:23:27.347Z,26.20
2018-06-21T12:25:54.543Z,26.00
2018-06-21T12:28:21.765Z,25.90
2018-06-21T12:30:48.952Z,26.00
2018-06-21T12:33:16.137Z,26.80
2018-06-21T12:35:43.429Z,27.00
2018-06-21T12:38:10.638Z,27.80
2018-06-21T12:40:37.832Z,28.00
2018-06-21T12:43:05.052Z,28.70
2018-06-21T12:45:32.241Z,28.60
2018-06-21T12:47:59.426Z,29.20
2018-06-21T12:50:26.630Z,29.80
2018-06-21T12:52:53.817Z,28.80
2018-06-21T12:55:21.079Z,29.20
2018-06-21T12:57:48.294Z,29.30
2018-06-21T13:00:15.725Z,29.70
2018-06-21T13:02:42.929Z,30.70
2018-06-21T13:05:10.157Z,30.80
2018-06-21T13:07:37.354Z,30.60
2018-06-21T13:10:16.355Z,30.10
2018-06-21T13:13:01.068Z,29.50
2018-06-21T13:15:28.290Z,28.10
2018-06-21T13:17:55.465Z,27.00
2018-06-21T13:20:22.669Z,26.00
2018-06-21T13:22:49.869Z,25.60
2018-06-21T13:25:17.078Z,25.80
2018-06-21T13:27:44.268Z,26.60
2018-06-21T13:30:11.504Z,27.10
2018-06-21T13:32:38.694Z,27.60
2018-06-21T13:35:06.366Z,27.80
2018-06-21T13:37:33.566Z,27.30
2018-06-21T13:40:00.787Z,27.00
2018-06-21T13:42:28.496Z,26.70
2018-06-21T13:44:55.692Z,26.20
2018-06-21T13:49:50.124Z,26.20
2018-06-21T13:52:17.339Z,26.70
2018-06-21T13:54:44.562Z,26.70
2018-06-21T13:57:11.750Z,27.00
2018-06-21T13:59:38.998Z,27.00
2018-06-21T14:02:06.388Z,26.60
2018-06-21T14:04:33.577Z,26.10
2018-06-21T14:07:00.791Z,25.60
2018-06-21T14:09:27.980Z,25.40
2018-06-21T14:11:55.191Z,25.40
2018-06-21T14:14:22.716Z,25.70
2018-06-21T14:16:49.924Z,25.30
2018-06-21T14:19:17.202Z,25.40
2018-06-21T14:21:44.378Z,25.50
2018-06-21T14:24:12.704Z,25.60
2018-06-21T14:26:40.282Z,25.50
2018-06-21T14:29:07.505Z,25.40
2018-06-21T14:31:34.733Z,24.90
2018-06-21T14:34:01.913Z,24.40
2018-06-21T14:36:29.438Z,24.00
2018-06-21T14:38:56.936Z,23.60
2018-06-21T14:41:24.381Z,23.30
2018-06-21T14:43:51.574Z,23.20
2018-06-21T14:46:18.761Z,23.50
2018-06-21T14:48:46.012Z,23.80
2018-06-21T14:51:13.193Z,24.30
2018-06-21T14:53:40.395Z,24.80
2018-06-21T14:56:07.621Z,25.70
2018-06-21T14:58:34.817Z,26.40
2018-06-21T15:01:02.027Z,26.80
2018-06-21T15:03:29.357Z,26.30
2018-06-21T15:05:56.553Z,26.60
2018-06-21T15:08:23.753Z,26.40
2018-06-21T15:10:50.954Z,26.30
2018-06-21T15:13:18.150Z,26.30
2018-06-21T15:15:45.348Z,26.40
2018-06-21T15:18:12.559Z,26.10
2018-06-21T15:20:39.751Z,25.70
2018-06-21T15:23:06.982Z,25.60
2018-06-21T15:25:34.202Z,25.50
2018-06-21T15:28:01.600Z,24.80
2018-06-21T15:30:28.814Z,24.50
2018-06-21T15:32:56.018Z,24.60
2018-06-21T15:35:23.214Z,24.60
2018-06-21T15:37:50.541Z,24.40
2018-06-21T15:40:17.912Z,23.70
2018-06-21T15:42:45.109Z,23.40
2018-06-21T15:45:12.449Z,23.50
2018-06-21T15:47:39.645Z,23.30
2018-06-21T15:50:06.906Z,23.10
2018-06-21T15:52:34.097Z,23.00
2018-06-21T15:55:01.301Z,23.20
2018-06-21T15:57:28.561Z,23.50
2018-06-21T16:04:50.205Z,22.90
2018-06-21T16:07:17.404Z,22.40
2018-06-21T16:09:44.614Z,22.20
2018-06-21T16:12:11.824Z,21.90
2018-06-21T16:14:39.025Z,21.40
2018-06-21T16:17:06.336Z,21.30
2018-06-21T16:19:33.583Z,21.10
2018-06-21T16:22:00.941Z,20.90
2018-06-21T16:24:28.149Z,21.00
2018-06-21T16:26:55.340Z,21.20
2018-06-21T16:31:49.746Z,21.10
2018-06-21T16:34:17.092Z,21.10
2018-06-21T16:36:44.507Z,21.00
2018-06-21T16:39:11.756Z,21.10
2018-06-21T16:41:39.359Z,21.10
2018-06-21T16:44:06.509Z,20.90
2018-06-21T16:46:33.889Z,20.60
2018-06-21T16:49:01.098Z,20.20
2018-06-21T16:51:28.683Z,20.10
2018-06-21T16:53:55.888Z,19.90
2018-06-21T16:56:23.474Z,19.90
2018-06-21T16:58:50.672Z,19.80
2018-06-21T17:01:17.941Z,19.80
2018-06-21T17:03:45.150Z,19.70
2018-06-21T17:06:12.417Z,19.60
2018-06-21T17:08:39.640Z,19.50
2018-06-21T17:11:06.892Z,19.40
2018-06-21T17:13:34.109Z,19.30
2018-06-21T17:16:01.378Z,19.30
2018-06-21T17:18:29.505Z,19.30
2018-06-21T17:20:56.705Z,19.30
2018-06-21T17:23:23.916Z,19.40
2018-06-21T17:25:51.166Z,19.30
2018-06-21T17:28:18.389Z,19.30
2018-06-21T17:30:45.735Z,19.40
2018-06-21T17:33:12.992Z,19.40
2018-06-21T17:35:40.221Z,19.50
2018-06-21T17:38:07.443Z,19.60
2018-06-21T17:40:34.739Z,19.70
2018-06-21T17:43:01.952Z,20.00
2018-06-21T17:45:29.358Z,20.20
2018-06-21T17:47:56.568Z,20.60
2018-06-21T17:50:23.801Z,20.90
2018-06-21T17:52:51.240Z,21.10
2018-06-21T17:57:45.746Z,20.80
2018-06-21T18:00:12.976Z,20.50
2018-06-21T18:02:40.428Z,20.20
2018-06-21T18:05:07.730Z,20.00
2018-06-21T18:07:35.021Z,19.80
2018-06-21T18:10:02.342Z,19.50
2018-06-21T18:12:29.556Z,19.20
2018-06-21T18:14:56.874Z,19.10
2018-06-21T18:17:24.173Z,18.90
2018-06-21T18:19:51.444Z,18.70
2018-06-21T18:22:18.712Z,18.50
2018-06-21T18:24:45.930Z,18.40
2018-06-21T18:27:13.197Z,18.20
2018-06-21T18:29:40.600Z,18.10
2018-06-21T18:32:07.853Z,17.90
2018-06-21T18:34:35.065Z,17.80
2018-06-21T18:37:02.328Z,17.70
2018-06-21T18:39:29.585Z,17.60
2018-06-21T18:41:56.813Z,17.50
2018-06-21T18:44:24.042Z,17.30
2018-06-21T18:46:51.286Z,17.20
2018-06-21T18:49:18.506Z,17.10
2018-06-21T18:51:45.729Z,17.00
2018-06-21T18:54:12.940Z,16.90
2018-06-21T18:56:40.373Z,16.80
2018-06-21T18:59:07.609Z,16.70
2018-06-21T19:01:35.003Z,16.70
2018-06-21T19:04:02.259Z,16.60
2018-06-21T19:06:35.373Z,16.60
2018-06-21T19:09:08.476Z,16.70
2018-06-21T19:11:41.583Z,16.70
2018-06-21T19:14:08.859Z,16.70
2018-06-21T19:16:36.087Z,16.70
2018-06-21T19:19:03.307Z,16.70
2018-06-21T19:21:30.552Z,16.70
2018-06-21T19:23:57.757Z,16.70
2018-06-21T19:26:25.192Z,16.70
2018-06-21T19:28:52.410Z,16.70
2018-06-21T19:31:19.658Z,16.60
2018-06-21T19:33:46.859Z,16.60
2018-06-21T19:36:14.120Z,16.60
2018-06-21T19:38:41.325Z,16.50
2018-06-21T19:41:08.540Z,16.50
2018-06-21T19:43:35.754Z,16.40
2018-06-21T19:46:02.968Z,16.40
2018-06-21T19:48:30.172Z,16.50
2018-06-21T19:50:57.393Z,16.40
2018-06-21T19:53:24.587Z,16.40
2018-06-21T19:55:51.792Z,16.50
2018-06-21T19:58:18.998Z,16.50
2018-06-21T20:00:46.202Z,16.40
2018-06-21T20:03:13.431Z,16.30
2018-06-21T20:05:40.707Z,16.30
2018-06-21T20:08:21.629Z,16.20
2018-06-21T20:10:53.421Z,16.20
2018-06-21T20:13:20.630Z,16.10
2018-06-21T20:15:53.007Z,16.00
2018-06-21T20:18:21.147Z,16.00
2018-06-21T20:20:48.420Z,15.90
2018-06-21T20:23:16.035Z,15.90
2018-06-21T20:25:43.216Z,15.80
2018-06-21T20:28:10.570Z,15.70
2018-06-21T20:30:37.765Z,15.60
2018-06-21T20:33:05.300Z,15.50
2018-06-21T20:35:32.501Z,15.50
2018-06-21T20:37:59.697Z,15.40
2018-06-21T20:40:26.921Z,15.30
2018-06-21T20:42:54.125Z,15.20
2018-06-21T20:45:21.321Z,15.20
2018-06-21T20:47:48.528Z,15.10
2018-06-21T20:50:15.725Z,15.00
2018-06-21T20:52:42.930Z,14.80
2018-06-21T20:55:10.134Z,14.70
2018-06-21T20:57:37.422Z,14.50
2018-06-21T21:00:04.633Z,14.30
2018-06-21T21:02:31.842Z,14.20
2018-06-21T21:05:09.374Z,14.10
2018-06-21T21:07:36.631Z,14.00
2018-06-21T21:10:05.743Z,13.80
2018-06-21T21:12:32.924Z,13.70
2018-06-21T21:15:00.264Z,13.60
2018-06-21T21:17:27.473Z,13.50
2018-06-21T21:19:54.668Z,13.30
2018-06-21T21:22:21.857Z,13.30
2018-06-21T21:24:49.589Z,13.20
2018-06-21T21:27:16.795Z,13.10
2018-06-21T21:29:43.998Z,13.00
2018-06-21T21:32:11.193Z,12.90
2018-06-21T21:34:38.397Z,12.80
2018-06-21T21:37:05.593Z,12.70
2018-06-21T21:39:32.892Z,12.60
2018-06-21T21:42:00.054Z,12.60
2018-06-21T21:44:27.256Z,12.40
2018-06-21T21:49:21.654Z,12.20
2018-06-21T21:51:48.866Z,12.20
2018-06-21T21:54:16.068Z,12.10
2018-06-21T21:56:43.266Z,12.10
2018-06-21T21:59:10.456Z,12.00
2018-06-21T22:01:37.654Z,12.00
2018-06-21T22:04:04.895Z,11.90
2018-06-21T22:06:32.081Z,11.90
2018-06-21T22:08:59.280Z,11.80
2018-06-21T22:13:59.530Z,11.60
2018-06-21T22:16:26.723Z,11.50
2018-06-21T22:18:53.938Z,11.40
2018-06-21T22:21:21.137Z,11.30
2018-06-21T22:23:48.336Z,11.20
2018-06-21T22:26:15.543Z,11.10
2018-06-21T22:28:42.741Z,11.20
2018-06-21T22:31:09.933Z,11.10
2018-06-21T22:33:37.133Z,11.10
2018-06-21T22:36:04.436Z,11.10
2018-06-21T22:38:31.629Z,11.10
2018-06-21T22:40:58.828Z,11.00
2018-06-21T22:43:26.049Z,11.00
2018-06-21T22:45:53.253Z,10.90
2018-06-21T22:48:20.441Z,10.90
2018-06-21T22:50:47.669Z,10.90
2018-06-21T22:53:14.852Z,10.90
2018-06-21T22:55:42.049Z,10.80
2018-06-21T22:58:09.244Z,10.70
2018-06-21T23:00:36.449Z,10.60
2018-06-21T23:03:03.707Z,10.50
2018-06-21T23:05:30.956Z,10.40
2018-06-21T23:07:58.109Z,10.30
2018-06-21T23:10:25.333Z,10.20
2018-06-21T23:12:52.549Z,10.20
2018-06-21T23:15:19.766Z,10.20
2018-06-21T23:17:46.956Z,10.20
2018-06-21T23:20:14.176Z,10.10
2018-06-21T23:22:41.372Z,10.10
2018-06-21T23:25:08.575Z,10.00
2018-06-21T23:27:35.752Z,9.90
2018-06-21T23:30:03.286Z,9.80
2018-06-21T23:32:30.508Z,9.70
2018-06-21T23:34:57.705Z,9.70
2018-06-21T23:37:24.909Z,9.60
2018-06-21T23:39:52.107Z,9.60
2018-06-21T23:42:19.312Z,9.50
2018-06-21T23:44:46.596Z,9.40
2018-06-21T23:47:13.880Z,9.30
2018-06-21T23:52:08.273Z,9.20
2018-06-21T23:54:35.476Z,9.20
2018-06-21T23:57:02.707Z,9.10
2018-06-21T23:59:29.904Z,9.00
